createdAt,value
2022-11-30T00:00:38.127Z,16.90
2022-11-30T00:03:25.564Z,15.57
2022-11-30T00:05:58.436Z,17.95
2022-11-30T00:08:31.488Z,15.70
2022-11-30T00:11:08.636Z,16.63
2022-11-30T00:13:42.195Z,15.97
2022-11-30T00:16:15.496Z,15.60
2022-11-30T00:18:48.589Z,18.10
2022-11-30T00:21:21.753Z,15.80
2022-11-30T00:23:54.696Z,17.20
2022-11-30T00:26:27.677Z,17.27
2022-11-30T00:29:00.867Z,16.83
2022-11-30T00:31:33.751Z,15.73
2022-11-30T00:34:06.602Z,16.93
2022-11-30T00:36:39.454Z,16.00
2022-11-30T00:39:12.627Z,17.23
2022-11-30T00:41:45.539Z,18.23
2022-11-30T00:44:18.379Z,18.00
2022-11-30T00:46:51.449Z,15.63
2022-11-30T00:49:24.290Z,17.50
2022-11-30T00:51:57.190Z,18.97
2022-11-30T00:54:30.638Z,19.87
2022-11-30T00:57:03.675Z,18.50
2022-11-30T00:59:36.577Z,15.37
2022-11-30T01:02:10.165Z,17.73
2022-11-30T01:04:45.099Z,15.90
2022-11-30T01:07:21.229Z,18.20
2022-11-30T01:09:54.309Z,17.80
2022-11-30T01:12:27.183Z,19.37
2022-11-30T01:15:00.177Z,17.00
2022-11-30T01:17:33.157Z,15.70
2022-11-30T01:20:06.647Z,18.93
2022-11-30T01:22:39.628Z,19.47
2022-11-30T01:25:12.983Z,17.43
2022-11-30T01:27:49.777Z,19.40
2022-11-30T01:30:22.905Z,18.97
2022-11-30T01:32:55.789Z,20.10
2022-11-30T01:35:28.765Z,16.97
2022-11-30T01:38:01.612Z,17.60
2022-11-30T01:40:34.721Z,15.80
2022-11-30T01:43:13.498Z,16.27
2022-11-30T01:45:46.832Z,16.03
2022-11-30T01:48:19.931Z,18.47
2022-11-30T01:50:52.969Z,16.10
2022-11-30T01:53:27.116Z,15.27
2022-11-30T01:56:00.483Z,14.37
2022-11-30T01:58:35.180Z,15.73
2022-11-30T02:01:08.348Z,14.80
2022-11-30T02:03:49.110Z,14.43
2022-11-30T02:06:23.343Z,14.63
2022-11-30T02:08:57.750Z,14.23
2022-11-30T02:11:31.316Z,12.33
2022-11-30T02:14:20.131Z,12.53
2022-11-30T02:17:03.544Z,13.97
2022-11-30T02:20:00.324Z,12.00
2022-11-30T02:22:50.589Z,13.00
2022-11-30T02:25:35.870Z,11.83
2022-11-30T02:28:25.115Z,13.30
2022-11-30T02:31:01.515Z,10.97
2022-11-30T02:33:36.110Z,13.83
2022-11-30T02:36:11.161Z,11.60
2022-11-30T02:38:44.512Z,11.60
2022-11-30T02:41:17.497Z,11.73
2022-11-30T02:43:50.596Z,10.63
2022-11-30T02:46:31.075Z,11.07
2022-11-30T02:49:11.546Z,11.00
2022-11-30T02:51:46.801Z,10.83
2022-11-30T02:54:21.015Z,11.00
2022-11-30T02:56:53.946Z,9.40
2022-11-30T02:59:26.959Z,10.13
2022-11-30T03:02:01.872Z,11.87
2022-11-30T03:04:34.948Z,13.60
2022-11-30T03:07:07.742Z,11.73
2022-11-30T03:09:40.734Z,10.43
2022-11-30T03:12:13.625Z,12.57
2022-11-30T03:14:46.573Z,11.17
2022-11-30T03:17:21.388Z,11.63
2022-11-30T03:19:54.436Z,13.00
2022-11-30T03:22:27.262Z,11.63
2022-11-30T03:25:00.264Z,11.50
2022-11-30T03:27:33.336Z,12.40
2022-11-30T03:30:08.089Z,11.77
2022-11-30T03:32:41.114Z,11.27
2022-11-30T03:35:14.063Z,12.73
2022-11-30T03:37:48.459Z,11.77
2022-11-30T03:40:21.565Z,11.57
2022-11-30T03:42:54.427Z,12.50
2022-11-30T03:45:27.537Z,13.40
2022-11-30T03:48:00.353Z,11.20
2022-11-30T03:50:33.280Z,12.67
2022-11-30T03:53:06.316Z,13.27
2022-11-30T03:55:39.414Z,12.60
2022-11-30T03:58:12.392Z,13.33
2022-11-30T04:00:45.615Z,13.53
2022-11-30T04:03:21.653Z,14.57
2022-11-30T04:05:54.436Z,12.73
2022-11-30T04:08:27.602Z,13.03
2022-11-30T04:11:02.384Z,13.83
2022-11-30T04:13:36.870Z,13.30
2022-11-30T04:16:10.368Z,14.83
2022-11-30T04:18:43.392Z,12.17
2022-11-30T04:21:16.258Z,14.30
2022-11-30T04:23:49.408Z,12.87
2022-11-30T04:26:25.712Z,15.50
2022-11-30T04:29:01.198Z,14.47
2022-11-30T04:31:37.281Z,14.33
2022-11-30T04:34:11.433Z,13.27
2022-11-30T04:36:44.582Z,13.60
2022-11-30T04:39:18.165Z,13.50
2022-11-30T04:41:51.434Z,13.40
2022-11-30T04:44:24.518Z,12.87
2022-11-30T04:46:57.418Z,13.10
2022-11-30T04:49:30.339Z,14.07
2022-11-30T04:52:03.250Z,14.20
2022-11-30T04:54:36.432Z,13.37
2022-11-30T04:57:09.544Z,13.67
2022-11-30T04:59:42.889Z,13.50
2022-11-30T05:02:15.822Z,10.77
2022-11-30T05:04:49.238Z,12.90
2022-11-30T05:07:22.746Z,11.53
2022-11-30T05:09:56.176Z,11.07
2022-11-30T05:12:29.185Z,12.27
2022-11-30T05:15:02.174Z,14.37
2022-11-30T05:17:35.258Z,11.10
2022-11-30T05:20:23.617Z,11.30
2022-11-30T05:22:59.584Z,11.83
2022-11-30T05:25:37.672Z,11.73
2022-11-30T05:28:11.087Z,11.17
2022-11-30T05:30:57.378Z,12.80
2022-11-30T05:33:30.689Z,12.05
2022-11-30T05:36:10.206Z,10.07
2022-11-30T05:38:43.790Z,10.83
2022-11-30T05:41:16.831Z,11.13
2022-11-30T05:43:49.965Z,9.60
2022-11-30T05:46:24.052Z,10.40
2022-11-30T05:48:57.702Z,9.70
2022-11-30T05:51:34.161Z,9.33
2022-11-30T05:54:07.508Z,11.77
2022-11-30T05:56:40.676Z,10.60
2022-11-30T05:59:14.560Z,11.15
2022-11-30T06:01:47.708Z,12.23
2022-11-30T06:04:22.062Z,10.80
2022-11-30T06:06:55.986Z,11.30
2022-11-30T06:09:34.918Z,10.65
2022-11-30T06:12:10.799Z,10.00
2022-11-30T06:14:48.151Z,10.47
2022-11-30T06:17:38.194Z,12.93
2022-11-30T06:20:12.682Z,11.27
2022-11-30T06:22:49.858Z,10.93
2022-11-30T06:25:22.857Z,10.87
2022-11-30T06:27:55.974Z,11.27
2022-11-30T06:30:39.486Z,9.77
2022-11-30T06:33:12.577Z,10.07
2022-11-30T06:35:49.108Z,11.00
2022-11-30T06:38:26.372Z,10.60
2022-11-30T06:41:22.206Z,10.37
2022-11-30T06:43:55.130Z,11.77
2022-11-30T06:46:28.435Z,10.63
2022-11-30T06:49:02.827Z,9.77
2022-11-30T06:51:41.358Z,11.87
2022-11-30T06:59:29.744Z,12.90
2022-11-30T07:02:22.310Z,10.27
2022-11-30T07:05:34.797Z,10.97
2022-11-30T07:08:18.603Z,11.47
2022-11-30T07:10:51.942Z,10.20
2022-11-30T07:13:25.424Z,11.30
2022-11-30T07:16:27.213Z,11.20
2022-11-30T07:19:23.613Z,11.10
2022-11-30T07:21:59.497Z,12.07
2022-11-30T07:25:35.134Z,10.27
2022-11-30T07:28:40.305Z,12.67
2022-11-30T07:32:04.936Z,11.10
2022-11-30T07:38:51.834Z,12.97
2022-11-30T07:45:05.170Z,12.43
2022-11-30T07:47:51.976Z,14.57
2022-11-30T07:50:24.984Z,13.60
2022-11-30T07:57:01.049Z,13.53
2022-11-30T07:59:34.141Z,12.47
2022-11-30T08:02:07.591Z,13.13
2022-11-30T08:04:43.665Z,13.70
2022-11-30T08:07:22.591Z,13.17
2022-11-30T08:09:55.686Z,12.27
2022-11-30T08:12:45.198Z,11.40
2022-11-30T08:15:46.002Z,13.13
2022-11-30T08:18:19.349Z,14.33
2022-11-30T08:21:00.143Z,12.13
2022-11-30T08:23:34.971Z,13.53
2022-11-30T08:26:11.866Z,12.87
2022-11-30T08:28:46.619Z,13.80
2022-11-30T08:31:22.876Z,14.50
2022-11-30T08:33:58.680Z,12.27
2022-11-30T08:36:33.049Z,13.20
2022-11-30T08:39:07.965Z,13.20
2022-11-30T08:41:43.622Z,13.67
2022-11-30T08:44:55.242Z,14.77
2022-11-30T08:47:59.060Z,12.60
2022-11-30T08:50:32.072Z,11.37
2022-11-30T08:53:06.615Z,13.83
2022-11-30T08:55:39.762Z,11.67
2022-11-30T08:58:13.049Z,10.00
2022-11-30T09:00:46.062Z,9.97
2022-11-30T09:03:18.977Z,10.63
2022-11-30T09:05:51.899Z,11.33
2022-11-30T09:08:24.922Z,9.80
2022-11-30T09:10:57.862Z,9.73
2022-11-30T09:13:30.786Z,10.40
2022-11-30T09:16:03.988Z,10.07
2022-11-30T09:18:37.793Z,12.57
2022-11-30T09:21:14.693Z,12.43
2022-11-30T09:23:48.903Z,11.67
2022-11-30T09:26:25.483Z,12.43
2022-11-30T09:28:58.584Z,11.80
2022-11-30T09:31:31.588Z,13.17
2022-11-30T09:34:04.569Z,12.67
2022-11-30T09:36:37.572Z,11.53
2022-11-30T09:39:13.423Z,10.63
2022-11-30T09:42:06.115Z,11.83
2022-11-30T09:47:35.846Z,11.50
2022-11-30T09:50:16.295Z,11.30
2022-11-30T09:52:54.893Z,10.83
2022-11-30T09:55:35.448Z,10.70
2022-11-30T09:58:13.537Z,11.27
2022-11-30T10:00:46.337Z,11.13
2022-11-30T10:03:21.096Z,10.63
2022-11-30T10:06:02.054Z,10.27
2022-11-30T10:08:51.021Z,9.77
2022-11-30T10:11:48.081Z,8.87
2022-11-30T10:14:46.032Z,8.90
2022-11-30T10:17:31.416Z,9.40
2022-11-30T10:20:26.129Z,8.13
2022-11-30T10:23:18.836Z,8.37
2022-11-30T10:28:46.974Z,8.60
2022-11-30T10:31:22.790Z,8.37
2022-11-30T10:34:16.942Z,9.90
2022-11-30T10:36:54.709Z,10.23
2022-11-30T10:39:33.754Z,9.43
2022-11-30T10:42:12.475Z,11.73
2022-11-30T10:55:23.054Z,10.33
2022-11-30T10:58:08.331Z,9.23
2022-11-30T11:00:41.558Z,10.57
2022-11-30T11:03:28.780Z,10.07
2022-11-30T11:06:16.365Z,10.03
2022-11-30T11:08:55.002Z,9.70
2022-11-30T11:11:35.976Z,35.90
2022-11-30T11:14:34.885Z,11.87
2022-11-30T11:17:26.489Z,11.40
2022-11-30T11:19:59.350Z,11.50
2022-11-30T11:22:35.790Z,10.50
2022-11-30T11:25:22.260Z,11.40
2022-11-30T11:28:02.844Z,11.10
2022-11-30T11:30:38.726Z,10.90
2022-11-30T11:33:23.374Z,11.45
2022-11-30T11:36:14.704Z,12.83
2022-11-30T11:38:53.478Z,10.67
2022-11-30T11:41:31.552Z,10.80
2022-11-30T11:44:07.894Z,11.33
2022-11-30T11:46:56.702Z,11.07
2022-11-30T11:49:32.738Z,11.67
2022-11-30T11:52:08.791Z,9.23
2022-11-30T11:58:54.261Z,10.20
2022-11-30T12:01:46.919Z,10.50
2022-11-30T12:04:42.385Z,14.00
2022-11-30T12:11:26.789Z,11.17
2022-11-30T12:14:01.939Z,10.33
2022-11-30T12:16:45.927Z,10.03
2022-11-30T12:19:23.430Z,11.77
2022-11-30T12:22:11.430Z,11.40
2022-11-30T12:25:17.113Z,13.03
2022-11-30T12:27:59.409Z,10.33
2022-11-30T12:30:41.744Z,11.60
2022-11-30T12:33:43.376Z,10.75
2022-11-30T12:36:50.075Z,11.57
2022-11-30T12:39:34.963Z,10.00
2022-11-30T12:42:18.880Z,12.73
2022-11-30T12:45:05.867Z,12.20
2022-11-30T12:47:55.336Z,10.40
2022-11-30T12:50:46.404Z,10.57
2022-11-30T12:53:28.574Z,9.20
2022-11-30T12:56:13.830Z,10.00
2022-11-30T12:58:56.309Z,8.97
2022-11-30T13:01:51.864Z,8.47
2022-11-30T13:04:30.844Z,8.13
2022-11-30T13:07:09.639Z,9.53
2022-11-30T13:09:49.300Z,7.87
2022-11-30T13:12:26.970Z,8.67
2022-11-30T13:15:05.030Z,8.13
2022-11-30T13:17:39.868Z,8.63
2022-11-30T13:20:27.544Z,8.53
2022-11-30T13:23:07.265Z,10.63
2022-11-30T13:28:59.615Z,9.07
2022-11-30T13:31:40.701Z,9.07
2022-11-30T13:34:28.511Z,9.97
2022-11-30T13:37:10.269Z,8.23
2022-11-30T13:39:57.501Z,9.03
2022-11-30T13:42:51.772Z,9.00
2022-11-30T13:45:36.631Z,8.40
2022-11-30T13:48:35.777Z,9.63
2022-11-30T13:51:09.627Z,9.27
2022-11-30T13:53:44.470Z,9.73
2022-11-30T13:56:43.378Z,9.93
2022-11-30T14:00:33.739Z,9.70
2022-11-30T14:07:11.751Z,8.37
2022-11-30T14:10:30.471Z,9.07
2022-11-30T14:13:24.873Z,9.73
2022-11-30T14:16:03.560Z,9.17
2022-11-30T14:18:45.563Z,9.63
2022-11-30T14:21:27.756Z,12.13
2022-11-30T14:24:04.861Z,9.13
2022-11-30T14:26:45.365Z,9.93
2022-11-30T14:29:22.141Z,9.57
2022-11-30T14:31:59.849Z,8.83
2022-11-30T14:34:37.634Z,9.95
2022-11-30T14:37:23.177Z,10.43
2022-11-30T14:40:03.215Z,10.07
2022-11-30T14:42:37.894Z,12.07
2022-11-30T14:45:20.676Z,10.30
2022-11-30T14:48:06.358Z,11.00
2022-11-30T14:50:44.098Z,10.87
2022-11-30T14:53:31.237Z,10.23
2022-11-30T14:56:15.095Z,11.20
2022-11-30T14:58:54.824Z,11.80
2022-11-30T15:01:30.319Z,10.97
2022-11-30T15:04:13.668Z,11.33
2022-11-30T15:06:54.073Z,11.63
2022-11-30T15:09:31.898Z,9.87
2022-11-30T15:12:40.087Z,13.10
2022-11-30T15:15:51.124Z,14.70
2022-11-30T15:18:27.717Z,11.53
2022-11-30T15:21:46.512Z,11.67
2022-11-30T15:24:41.968Z,10.50
2022-11-30T15:27:23.006Z,12.40
2022-11-30T15:30:06.858Z,12.03
2022-11-30T15:32:40.158Z,12.27
2022-11-30T15:35:23.369Z,10.70
2022-11-30T15:37:58.551Z,10.30
2022-11-30T15:40:36.592Z,10.60
2022-11-30T15:43:23.777Z,10.70
2022-11-30T15:45:58.549Z,10.77
2022-11-30T15:48:39.479Z,10.20
2022-11-30T15:51:53.205Z,11.20
2022-11-30T15:54:53.348Z,11.30
2022-11-30T15:57:29.001Z,12.30
2022-11-30T16:00:20.536Z,12.87
2022-11-30T16:05:42.050Z,10.77
2022-11-30T16:08:21.182Z,12.37
2022-11-30T16:10:55.303Z,11.70
2022-11-30T16:13:33.049Z,12.10
2022-11-30T16:16:15.557Z,11.83
2022-11-30T16:18:50.225Z,12.53
2022-11-30T16:22:05.833Z,10.47
2022-11-30T16:24:46.594Z,12.15
2022-11-30T16:27:40.729Z,11.50
2022-11-30T16:30:21.917Z,12.67
2022-11-30T16:32:55.032Z,10.43
2022-11-30T16:35:31.847Z,10.80
2022-11-30T16:38:06.844Z,11.00
2022-11-30T16:40:40.769Z,10.93
2022-11-30T16:43:16.058Z,11.30
2022-11-30T16:45:51.244Z,12.67
2022-11-30T16:48:24.268Z,10.90
2022-11-30T16:50:57.988Z,11.10
2022-11-30T16:53:31.020Z,11.50
2022-11-30T16:56:04.583Z,9.93
2022-11-30T16:58:37.327Z,11.40
2022-11-30T17:01:18.026Z,10.87
2022-11-30T17:03:53.534Z,13.60
2022-11-30T17:06:26.967Z,10.70
2022-11-30T17:08:59.767Z,13.67
2022-11-30T17:11:36.532Z,11.33
2022-11-30T17:14:11.739Z,11.33
2022-11-30T17:16:48.768Z,10.73
2022-11-30T17:19:24.885Z,11.97
2022-11-30T17:21:58.099Z,12.67
2022-11-30T17:24:31.835Z,12.77
2022-11-30T17:27:05.925Z,13.10
2022-11-30T17:29:43.390Z,12.03
2022-11-30T17:32:18.217Z,10.43
2022-11-30T17:34:53.584Z,14.07
2022-11-30T17:37:32.528Z,14.67
2022-11-30T17:40:08.588Z,12.17
2022-11-30T17:42:41.893Z,13.23
2022-11-30T17:45:16.786Z,12.90
2022-11-30T17:47:49.743Z,13.30
2022-11-30T17:50:22.646Z,13.53
2022-11-30T17:52:59.885Z,13.37
2022-11-30T17:55:33.017Z,13.90
2022-11-30T17:58:07.861Z,15.23
2022-11-30T18:00:40.843Z,14.73
2022-11-30T18:03:13.841Z,14.43
2022-11-30T18:05:47.072Z,14.77
2022-11-30T18:08:38.030Z,13.60
2022-11-30T18:11:55.095Z,14.20
2022-11-30T18:14:47.670Z,14.00
2022-11-30T18:18:02.907Z,16.03
2022-11-30T18:20:50.793Z,15.07
2022-11-30T18:23:42.588Z,13.73
2022-11-30T18:26:38.627Z,16.10
2022-11-30T18:29:22.468Z,15.83
2022-11-30T18:32:01.013Z,15.93
2022-11-30T18:34:34.136Z,16.37
2022-11-30T18:37:07.384Z,15.33
2022-11-30T18:39:40.552Z,15.70
2022-11-30T18:42:14.352Z,14.93
2022-11-30T18:44:47.593Z,17.53
2022-11-30T18:47:22.695Z,18.77
2022-11-30T18:49:55.567Z,16.83
2022-11-30T18:52:29.043Z,16.10
2022-11-30T18:55:01.940Z,19.17
2022-11-30T18:57:37.867Z,18.50
2022-11-30T19:00:12.845Z,17.47
2022-11-30T19:02:45.872Z,18.37
2022-11-30T19:05:32.995Z,16.43
2022-11-30T19:08:09.169Z,18.40
2022-11-30T19:10:42.935Z,23.50
2022-11-30T19:13:15.838Z,16.97
2022-11-30T19:15:48.625Z,20.57
2022-11-30T19:18:23.297Z,21.10
2022-11-30T19:20:56.933Z,20.20
2022-11-30T19:23:30.016Z,18.13
2022-11-30T19:26:05.637Z,17.97
2022-11-30T19:28:40.301Z,22.37
2022-11-30T19:31:15.096Z,19.43
2022-11-30T19:33:49.666Z,17.93
2022-11-30T19:36:24.481Z,19.70
2022-11-30T19:38:59.136Z,18.53
2022-11-30T19:41:32.172Z,21.20
2022-11-30T19:44:05.295Z,19.10
2022-11-30T19:46:38.559Z,16.83
2022-11-30T19:49:13.193Z,19.03
2022-11-30T19:51:46.184Z,20.73
2022-11-30T19:54:19.053Z,20.00
2022-11-30T19:56:52.011Z,19.30
2022-11-30T19:59:25.022Z,20.60
2022-11-30T20:02:00.330Z,22.90
2022-11-30T20:04:33.273Z,21.63
2022-11-30T20:07:06.255Z,24.90
2022-11-30T20:09:39.260Z,19.87
2022-11-30T20:12:13.620Z,19.90
2022-11-30T20:14:48.752Z,20.33
2022-11-30T20:17:22.184Z,24.33
2022-11-30T20:19:55.228Z,21.07
2022-11-30T20:22:28.429Z,19.63
2022-11-30T20:25:01.206Z,20.70
2022-11-30T20:27:35.918Z,22.13
2022-11-30T20:30:11.391Z,22.00
2022-11-30T20:32:44.369Z,22.80
2022-11-30T20:35:17.540Z,20.80
2022-11-30T20:37:52.467Z,23.00
2022-11-30T20:40:25.624Z,22.27
2022-11-30T20:42:58.627Z,26.15
2022-11-30T20:45:32.127Z,22.43
2022-11-30T20:48:05.124Z,21.80
2022-11-30T20:50:38.287Z,23.40
2022-11-30T20:53:11.257Z,23.77
2022-11-30T20:55:44.206Z,22.67
2022-11-30T20:58:17.318Z,22.13
2022-11-30T21:00:53.657Z,26.50
2022-11-30T21:03:28.377Z,22.70
2022-11-30T21:06:05.099Z,24.37
2022-11-30T21:08:39.662Z,24.67
2022-11-30T21:11:15.411Z,25.87
2022-11-30T21:13:50.734Z,24.97
2022-11-30T21:16:28.042Z,23.23
2022-11-30T21:19:02.670Z,23.57
2022-11-30T21:21:37.313Z,25.80
2022-11-30T21:24:12.991Z,27.30
2022-11-30T21:26:46.582Z,29.60
2022-11-30T21:29:20.605Z,26.27
2022-11-30T21:31:53.769Z,24.67
2022-11-30T21:34:26.983Z,27.03
2022-11-30T21:36:59.933Z,32.47
2022-11-30T21:39:35.147Z,31.07
2022-11-30T21:42:08.195Z,29.30
2022-11-30T21:44:41.153Z,28.33
2022-11-30T21:47:15.128Z,24.80
2022-11-30T21:49:48.202Z,30.27
2022-11-30T21:52:21.540Z,27.03
2022-11-30T21:54:54.626Z,28.13
2022-11-30T21:57:27.359Z,29.10
2022-11-30T22:00:00.234Z,28.63
2022-11-30T22:02:34.024Z,28.27
2022-11-30T22:05:09.248Z,29.37
2022-11-30T22:07:42.636Z,27.53
2022-11-30T22:10:16.081Z,26.77
2022-11-30T22:12:49.171Z,24.83
2022-11-30T22:15:22.161Z,29.30
2022-11-30T22:17:56.268Z,29.43
2022-11-30T22:20:29.236Z,30.37
2022-11-30T22:23:02.297Z,25.20
2022-11-30T22:25:35.264Z,27.57
2022-11-30T22:28:09.714Z,27.97
2022-11-30T22:30:43.483Z,27.93
2022-11-30T22:33:21.435Z,23.77
2022-11-30T22:35:55.274Z,23.73
2022-11-30T22:38:28.447Z,27.50
2022-11-30T22:41:09.826Z,27.57
2022-11-30T22:43:43.023Z,24.47
2022-11-30T22:46:21.704Z,24.57
2022-11-30T22:48:56.329Z,23.20
2022-11-30T22:51:31.331Z,27.83
2022-11-30T22:54:04.745Z,25.77
2022-11-30T22:56:40.834Z,24.37
2022-11-30T22:59:16.864Z,25.67
2022-11-30T23:01:52.619Z,27.10
2022-11-30T23:04:26.147Z,26.47
2022-11-30T23:06:59.390Z,27.70
2022-11-30T23:09:36.850Z,27.07
2022-11-30T23:12:10.447Z,26.07
2022-11-30T23:14:45.460Z,24.33
2022-11-30T23:17:18.495Z,26.37
2022-11-30T23:19:51.243Z,26.70
2022-11-30T23:22:24.213Z,28.70
2022-11-30T23:24:58.396Z,33.27
2022-11-30T23:27:31.517Z,27.70
2022-11-30T23:30:05.034Z,25.90
2022-11-30T23:32:38.114Z,29.27
2022-11-30T23:35:11.921Z,27.57
2022-11-30T23:37:44.979Z,27.67
2022-11-30T23:40:18.527Z,26.17
2022-11-30T23:42:52.542Z,23.50
2022-11-30T23:45:25.734Z,30.33
2022-11-30T23:47:58.683Z,24.97
2022-11-30T23:50:31.649Z,28.93
2022-11-30T23:53:04.542Z,27.07
2022-11-30T23:55:37.818Z,31.73
2022-11-30T23:58:11.182Z,29.47
